Time;durP1;ratioP1;P1;durP2;ratioP2;P2;SDS_P1;SDS_P2;PMS_P1;PMS_P2;Temp;Humidity;BMP_temperature;BMP_pressure;BME280_temperature;BME280_humidity;BME280_pressure;Samples;Min_cycle;Max_cycle;Signal;HPM_P1;HPM_P2
2023/06/28 00:01:17;;;;;;;9.52;1.52;;;;;;;;;;5017054;28;25049;-62
2023/06/28 00:03:43;;;;;;;4.30;1.55;;;;;;;;;;5020905;28;25138;-61
2023/06/28 00:06:09;;;;;;;4.63;1.65;;;;;;;;;;5024658;28;25079;-62
2023/06/28 00:08:35;;;;;;;7.80;2.25;;;;;;;;;;5020078;28;25064;-61
2023/06/28 00:11:01;;;;;;;3.92;1.60;;;;;;;;;;5027997;28;25090;-64
2023/06/28 00:13:27;;;;;;;6.60;1.77;;;;;;;;;;5027617;28;25103;-61
2023/06/28 00:15:53;;;;;;;10.80;1.77;;;;;;;;;;5018211;28;25060;-63
2023/06/28 00:18:18;;;;;;;6.32;1.77;;;;;;;;;;5019039;28;25081;-61
2023/06/28 00:20:45;;;;;;;6.90;1.98;;;;;;;;;;5017687;28;25066;-61
2023/06/28 00:23:11;;;;;;;7.25;1.40;;;;;;;;;;5019381;28;25039;-61
2023/06/28 00:25:37;;;;;;;10.60;2.03;;;;;;;;;;5023339;28;25057;-61
2023/06/28 00:28:04;;;;;;;9.43;1.83;;;;;;;;;;5023427;28;25094;-62
2023/06/28 00:30:30;;;;;;;7.53;1.90;;;;;;;;;;5022188;28;25072;-60
2023/06/28 00:32:56;;;;;;;7.25;2.17;;;;;;;;;;5023686;28;25051;-62
2023/06/28 00:35:22;;;;;;;6.03;1.75;;;;;;;;;;5019862;28;25050;-62
2023/06/28 00:37:48;;;;;;;6.63;1.70;;;;;;;;;;5015605;28;25094;-62
2023/06/28 00:40:14;;;;;;;7.03;2.00;;;;;;;;;;5018997;28;25097;-61
2023/06/28 00:42:40;;;;;;;5.63;2.03;;;;;;;;;;5024463;28;25070;-62
2023/06/28 00:45:07;;;;;;;6.63;1.98;;;;;;;;;;5016036;28;25134;-62
2023/06/28 00:47:33;;;;;;;8.45;2.08;;;;;;;;;;5013225;28;25103;-62
2023/06/28 00:50:00;;;;;;;9.68;3.55;;;;;;;;;;5017782;28;25093;-62
2023/06/28 00:52:26;;;;;;;6.40;1.88;;;;;;;;;;5021996;28;25141;-62
2023/06/28 00:54:52;;;;;;;7.45;2.17;;;;;;;;;;5016273;28;25118;-62
2023/06/28 00:57:18;;;;;;;9.20;2.97;;;;;;;;;;5019013;28;25140;-60
2023/06/28 00:59:45;;;;;;;4.93;1.90;;;;;;;;;;5023081;28;25059;-63
2023/06/28 01:02:11;;;;;;;7.20;2.05;;;;;;;;;;5015331;28;25045;-61
2023/06/28 01:04:40;;;;;;;7.05;2.35;;;;;;;;;;5013126;28;25052;-61
2023/06/28 01:07:08;;;;;;;6.40;2.17;;;;;;;;;;5013589;28;25045;-62
2023/06/28 01:09:34;;;;;;;7.60;2.42;;;;;;;;;;5024664;28;25201;-60
2023/06/28 01:12:00;;;;;;;8.02;3.00;;;;;;;;;;5019315;28;25110;-63
2023/06/28 01:14:26;;;;;;;9.52;2.42;;;;;;;;;;5021103;28;25095;-63
2023/06/28 01:16:55;;;;;;;5.45;2.70;;;;;;;;;;5022755;28;25159;-63
2023/06/28 01:19:23;;;;;;;10.50;3.38;;;;;;;;;;5012106;28;25069;-61
2023/06/28 01:21:50;;;;;;;12.35;2.70;;;;;;;;;;5024135;28;25162;-62
2023/06/28 01:24:16;;;;;;;5.88;2.90;;;;;;;;;;5020629;28;25056;-63
2023/06/28 01:26:42;;;;;;;10.25;3.03;;;;;;;;;;5022396;28;25049;-62
2023/06/28 01:29:08;;;;;;;9.93;3.47;;;;;;;;;;5013374;28;25097;-63
2023/06/28 01:31:36;;;;;;;11.40;3.70;;;;;;;;;;5021827;28;25089;-62
2023/06/28 01:34:02;;;;;;;7.57;2.92;;;;;;;;;;5021547;28;25079;-60
2023/06/28 01:36:28;;;;;;;14.40;3.88;;;;;;;;;;5018266;28;25131;-61
2023/06/28 01:38:55;;;;;;;10.50;3.88;;;;;;;;;;5020157;28;25067;-61
2023/06/28 01:41:21;;;;;;;9.30;3.20;;;;;;;;;;5022776;28;25050;-63
2023/06/28 01:43:47;;;;;;;7.57;3.83;;;;;;;;;;5020881;28;25133;-65
2023/06/28 01:46:13;;;;;;;13.93;4.03;;;;;;;;;;5020521;28;25089;-63
2023/06/28 01:48:39;;;;;;;9.20;4.00;;;;;;;;;;5021433;28;25141;-62
2023/06/28 01:51:06;;;;;;;11.63;3.83;;;;;;;;;;5020371;28;25138;-62
2023/06/28 01:53:32;;;;;;;12.63;4.35;;;;;;;;;;5020924;28;25124;-61
2023/06/28 01:55:58;;;;;;;14.15;4.72;;;;;;;;;;5018693;28;25098;-62
2023/06/28 01:58:24;;;;;;;11.68;4.68;;;;;;;;;;5015406;28;25094;-62
2023/06/28 02:00:50;;;;;;;9.45;4.75;;;;;;;;;;5019991;28;25053;-62
2023/06/28 02:03:16;;;;;;;18.88;5.53;;;;;;;;;;5016317;28;25151;-61
2023/06/28 02:05:42;;;;;;;10.32;5.03;;;;;;;;;;5023903;28;25056;-62
2023/06/28 02:08:08;;;;;;;17.10;5.70;;;;;;;;;;5018802;28;25150;-62
2023/06/28 02:10:34;;;;;;;12.68;4.90;;;;;;;;;;5022714;28;25065;-63
2023/06/28 02:13:00;;;;;;;13.02;4.93;;;;;;;;;;5018882;28;25073;-62
2023/06/28 02:15:26;;;;;;;13.55;5.50;;;;;;;;;;5011908;28;25049;-62
2023/06/28 02:17:58;;;;;;;15.98;5.32;;;;;;;;;;5012611;28;25086;-62
2023/06/28 02:20:24;;;;;;;12.82;4.82;;;;;;;;;;5018540;28;25069;-61
2023/06/28 02:22:50;;;;;;;18.50;4.65;;;;;;;;;;5023437;28;25074;-62
2023/06/28 02:25:16;;;;;;;10.23;4.53;;;;;;;;;;5021261;28;25174;-63
2023/06/28 02:27:42;;;;;;;16.60;4.88;;;;;;;;;;5027321;28;25156;-63
2023/06/28 02:30:08;;;;;;;11.70;4.40;;;;;;;;;;5016329;28;25089;-64
2023/06/28 02:32:34;;;;;;;12.23;4.93;;;;;;;;;;5016744;28;25073;-63
2023/06/28 02:35:00;;;;;;;9.38;4.20;;;;;;;;;;5017816;28;25056;-61
2023/06/28 02:37:26;;;;;;;12.43;5.00;;;;;;;;;;5020616;28;25072;-63
2023/06/28 02:39:52;;;;;;;17.33;5.13;;;;;;;;;;5022114;28;25094;-63
2023/06/28 02:42:18;;;;;;;10.07;4.88;;;;;;;;;;5024377;28;25067;-63
2023/06/28 02:44:44;;;;;;;15.38;4.63;;;;;;;;;;5031769;28;25073;-62
2023/06/28 02:47:10;;;;;;;14.68;5.50;;;;;;;;;;5020895;28;25167;-63
2023/06/28 02:49:36;;;;;;;10.85;4.35;;;;;;;;;;5028664;28;25067;-61
2023/06/28 02:52:02;;;;;;;16.38;5.25;;;;;;;;;;5036073;28;25146;-62
2023/06/28 02:54:28;;;;;;;14.23;4.82;;;;;;;;;;5027137;28;25153;-63
2023/06/28 02:56:54;;;;;;;14.57;4.82;;;;;;;;;;5030968;28;25090;-62
2023/06/28 02:59:20;;;;;;;11.15;4.80;;;;;;;;;;5025422;28;25138;-62
2023/06/28 03:01:46;;;;;;;16.88;4.97;;;;;;;;;;5024675;28;25096;-62
2023/06/28 03:04:12;;;;;;;13.30;4.95;;;;;;;;;;5024431;28;25100;-62
2023/06/28 03:06:38;;;;;;;10.65;5.38;;;;;;;;;;5018559;28;25047;-63
2023/06/28 03:09:04;;;;;;;14.95;5.30;;;;;;;;;;5022918;28;26179;-63
2023/06/28 03:11:30;;;;;;;14.23;5.57;;;;;;;;;;5022545;28;25060;-62
2023/06/28 03:13:56;;;;;;;12.43;5.93;;;;;;;;;;5030296;28;25056;-63
2023/06/28 03:16:23;;;;;;;13.57;5.55;;;;;;;;;;5024204;28;25404;-62
2023/06/28 03:18:49;;;;;;;14.27;5.18;;;;;;;;;;5018610;28;25068;-62
2023/06/28 03:21:15;;;;;;;13.73;5.40;;;;;;;;;;5025426;28;25135;-61
2023/06/28 03:23:41;;;;;;;13.90;5.70;;;;;;;;;;5020321;28;25076;-62
2023/06/28 03:26:07;;;;;;;13.07;6.00;;;;;;;;;;5018699;28;25104;-63
2023/06/28 03:28:33;;;;;;;15.45;5.55;;;;;;;;;;5023345;28;25061;-62
2023/06/28 03:30:59;;;;;;;12.73;5.95;;;;;;;;;;5022113;28;25086;-60
2023/06/28 03:33:25;;;;;;;9.85;5.28;;;;;;;;;;5021084;28;25089;-63
2023/06/28 03:35:50;;;;;;;16.58;6.38;;;;;;;;;;5020511;28;25137;-63
2023/06/28 03:38:16;;;;;;;12.60;6.32;;;;;;;;;;5024155;28;25181;-63
2023/06/28 03:40:42;;;;;;;14.68;6.22;;;;;;;;;;5030805;28;25146;-62
2023/06/28 03:43:08;;;;;;;14.13;6.40;;;;;;;;;;5008805;28;25106;-64
2023/06/28 03:45:34;;;;;;;16.30;6.93;;;;;;;;;;5023886;28;25157;-62
2023/06/28 03:48:00;;;;;;;17.40;6.50;;;;;;;;;;5017623;28;25056;-61
2023/06/28 03:50:26;;;;;;;18.02;8.23;;;;;;;;;;5010583;28;25041;-62
2023/06/28 03:52:52;;;;;;;17.35;7.13;;;;;;;;;;5019351;28;25186;-63
2023/06/28 03:55:18;;;;;;;12.80;6.32;;;;;;;;;;5021564;28;25059;-63
2023/06/28 03:57:44;;;;;;;15.35;6.93;;;;;;;;;;5022187;28;25166;-62
2023/06/28 04:00:12;;;;;;;13.88;6.28;;;;;;;;;;5017235;28;25157;-63
2023/06/28 04:02:38;;;;;;;14.93;7.38;;;;;;;;;;5022815;28;25094;-62
2023/06/28 04:05:05;;;;;;;15.55;7.10;;;;;;;;;;5019234;28;25079;-63
2023/06/28 04:07:31;;;;;;;21.27;7.07;;;;;;;;;;5016429;28;25053;-62
2023/06/28 04:09:57;;;;;;;15.50;7.55;;;;;;;;;;5027456;28;25085;-62
2023/06/28 04:12:23;;;;;;;12.77;7.07;;;;;;;;;;5014556;28;25138;-61
2023/06/28 04:14:49;;;;;;;21.63;7.35;;;;;;;;;;5023483;28;25063;-62
2023/06/28 04:17:15;;;;;;;15.07;6.78;;;;;;;;;;5017273;28;25158;-62
2023/06/28 04:19:41;;;;;;;18.80;7.03;;;;;;;;;;5022487;28;25089;-63
2023/06/28 04:22:07;;;;;;;12.23;7.78;;;;;;;;;;5026770;28;25082;-62
2023/06/28 04:24:33;;;;;;;16.33;6.80;;;;;;;;;;5015158;28;25065;-62
2023/06/28 04:27:00;;;;;;;12.05;6.15;;;;;;;;;;5020575;28;25131;-62
2023/06/28 04:29:27;;;;;;;14.05;6.93;;;;;;;;;;5017227;28;25145;-61
2023/06/28 04:31:53;;;;;;;15.88;7.18;;;;;;;;;;5016889;28;25077;-62
2023/06/28 04:34:19;;;;;;;14.10;7.55;;;;;;;;;;5020308;28;25097;-63
2023/06/28 04:36:45;;;;;;;13.95;6.45;;;;;;;;;;5019869;28;25146;-63
2023/06/28 04:39:12;;;;;;;19.13;8.18;;;;;;;;;;5020625;28;25067;-63
2023/06/28 04:41:38;;;;;;;18.05;7.10;;;;;;;;;;5022607;28;25083;-64
2023/06/28 04:44:09;;;;;;;11.93;7.25;;;;;;;;;;5017128;28;25108;-62
2023/06/28 04:46:35;;;;;;;17.37;7.53;;;;;;;;;;5014122;28;25072;-62
2023/06/28 04:49:01;;;;;;;13.90;7.30;;;;;;;;;;5013975;28;25131;-64
2023/06/28 04:51:29;;;;;;;10.75;6.63;;;;;;;;;;5018917;28;25135;-64
2023/06/28 04:53:55;;;;;;;14.52;7.07;;;;;;;;;;5008799;28;25062;-64
2023/06/28 04:56:21;;;;;;;14.90;6.25;;;;;;;;;;5013861;28;25122;-63
2023/06/28 04:58:47;;;;;;;12.98;6.75;;;;;;;;;;5025519;28;25138;-63
2023/06/28 05:01:13;;;;;;;17.63;7.93;;;;;;;;;;5019283;28;25052;-62
2023/06/28 05:03:39;;;;;;;12.23;6.82;;;;;;;;;;5019527;28;25042;-65
2023/06/28 05:06:06;;;;;;;16.58;7.57;;;;;;;;;;5012718;28;25091;-62
2023/06/28 05:08:32;;;;;;;12.88;6.70;;;;;;;;;;5023769;28;25066;-63
2023/06/28 05:10:58;;;;;;;18.50;6.45;;;;;;;;;;5022042;28;25093;-63
2023/06/28 05:13:24;;;;;;;17.80;7.35;;;;;;;;;;5010366;28;25099;-63
2023/06/28 05:15:50;;;;;;;20.00;7.88;;;;;;;;;;5021484;28;25101;-64
2023/06/28 05:18:18;;;;;;;16.13;6.88;;;;;;;;;;5022338;28;25100;-60
2023/06/28 05:20:44;;;;;;;15.52;7.13;;;;;;;;;;5020033;28;25051;-64
2023/06/28 05:23:11;;;;;;;12.65;7.65;;;;;;;;;;5014609;28;25066;-62
2023/06/28 05:25:40;;;;;;;12.10;6.53;;;;;;;;;;5021143;28;25099;-62
2023/06/28 05:28:07;;;;;;;11.60;6.88;;;;;;;;;;5018006;28;25080;-63
2023/06/28 05:30:33;;;;;;;13.48;7.32;;;;;;;;;;5023247;28;25059;-64
2023/06/28 05:33:02;;;;;;;12.15;6.47;;;;;;;;;;5029445;28;25092;-63
2023/06/28 05:35:29;;;;;;;19.48;7.63;;;;;;;;;;5011400;28;25138;-63
2023/06/28 05:37:55;;;;;;;20.23;7.82;;;;;;;;;;5018486;28;25067;-62
2023/06/28 05:40:21;;;;;;;13.60;7.18;;;;;;;;;;5016850;28;25060;-61
2023/06/28 05:42:47;;;;;;;14.98;7.38;;;;;;;;;;5006876;28;25128;-62
2023/06/28 05:45:13;;;;;;;15.13;6.57;;;;;;;;;;5015113;28;25146;-62
2023/06/28 05:47:39;;;;;;;15.68;7.95;;;;;;;;;;5012007;28;25057;-63
2023/06/28 05:50:05;;;;;;;13.20;6.63;;;;;;;;;;5006109;28;25105;-63
2023/06/28 05:52:31;;;;;;;19.42;8.18;;;;;;;;;;5022463;28;25069;-62
2023/06/28 05:54:57;;;;;;;15.07;6.45;;;;;;;;;;5006602;28;25051;-62
2023/06/28 05:57:23;;;;;;;17.02;6.70;;;;;;;;;;5014813;28;25093;-63
2023/06/28 05:59:49;;;;;;;15.77;6.50;;;;;;;;;;5018205;28;25093;-62
2023/06/28 06:02:15;;;;;;;13.90;6.18;;;;;;;;;;5017108;28;25103;-62
2023/06/28 06:04:41;;;;;;;15.60;7.00;;;;;;;;;;5020811;28;25090;-64
2023/06/28 06:07:07;;;;;;;15.63;6.53;;;;;;;;;;5025060;28;25066;-62
2023/06/28 06:09:33;;;;;;;10.80;5.93;;;;;;;;;;5015276;28;25094;-62
2023/06/28 06:11:59;;;;;;;11.75;6.03;;;;;;;;;;5011816;28;25168;-63
2023/06/28 06:14:25;;;;;;;11.15;5.78;;;;;;;;;;5009337;28;25075;-62
2023/06/28 06:16:51;;;;;;;12.60;5.85;;;;;;;;;;5010823;28;25050;-62
2023/06/28 06:19:17;;;;;;;8.88;5.53;;;;;;;;;;5018363;28;25121;-61
2023/06/28 06:21:43;;;;;;;10.02;5.28;;;;;;;;;;5015856;28;25076;-62
2023/06/28 06:24:09;;;;;;;14.18;5.10;;;;;;;;;;5012771;28;25184;-62
2023/06/28 06:26:35;;;;;;;11.05;6.15;;;;;;;;;;5022236;28;25147;-62
2023/06/28 06:29:01;;;;;;;11.25;5.75;;;;;;;;;;5018248;28;25046;-61
2023/06/28 06:31:28;;;;;;;15.30;6.35;;;;;;;;;;5029092;28;25054;-64
2023/06/28 06:33:56;;;;;;;13.43;6.65;;;;;;;;;;5024294;28;25078;-62
2023/06/28 06:36:22;;;;;;;14.32;5.72;;;;;;;;;;5022155;28;25192;-63
2023/06/28 06:38:48;;;;;;;9.70;4.45;;;;;;;;;;5013066;28;25088;-62
2023/06/28 06:41:14;;;;;;;10.75;5.05;;;;;;;;;;5023893;28;25086;-62
2023/06/28 06:43:40;;;;;;;13.38;6.20;;;;;;;;;;5016957;28;25138;-63
2023/06/28 06:46:06;;;;;;;14.75;5.28;;;;;;;;;;5009032;28;25091;-63
2023/06/28 06:48:32;;;;;;;12.55;5.57;;;;;;;;;;5014445;28;25068;-62
2023/06/28 06:50:58;;;;;;;12.48;5.30;;;;;;;;;;5023672;28;25078;-62
2023/06/28 06:53:24;;;;;;;12.30;5.10;;;;;;;;;;5018379;28;25066;-62
2023/06/28 06:55:50;;;;;;;15.65;5.65;;;;;;;;;;5023272;28;25059;-61
2023/06/28 06:58:16;;;;;;;10.70;5.45;;;;;;;;;;5017368;28;25054;-60
2023/06/28 07:00:42;;;;;;;13.32;5.22;;;;;;;;;;5025495;28;25132;-62
2023/06/28 07:03:08;;;;;;;11.90;5.25;;;;;;;;;;5021031;28;25136;-61
2023/06/28 07:05:34;;;;;;;15.57;5.68;;;;;;;;;;5025264;28;25075;-61
2023/06/28 07:08:00;;;;;;;9.98;5.32;;;;;;;;;;5019876;28;25068;-63
2023/06/28 07:10:26;;;;;;;14.85;5.10;;;;;;;;;;5010190;28;25065;-63
2023/06/28 07:12:52;;;;;;;13.07;5.20;;;;;;;;;;5008018;28;25134;-61
2023/06/28 07:15:18;;;;;;;10.73;5.38;;;;;;;;;;5015597;28;25092;-61
2023/06/28 07:17:44;;;;;;;13.52;5.40;;;;;;;;;;5021328;28;25088;-62
2023/06/28 07:20:10;;;;;;;11.68;4.90;;;;;;;;;;5023889;28;25152;-62
2023/06/28 07:22:36;;;;;;;10.07;4.65;;;;;;;;;;5012245;28;25057;-62
2023/06/28 07:25:02;;;;;;;10.30;5.50;;;;;;;;;;5013502;28;25151;-62
2023/06/28 07:27:28;;;;;;;10.75;5.38;;;;;;;;;;5018360;28;25083;-61
2023/06/28 07:29:54;;;;;;;13.05;6.07;;;;;;;;;;5020727;28;25070;-62
2023/06/28 07:32:20;;;;;;;10.93;5.28;;;;;;;;;;5022406;28;25071;-61
2023/06/28 07:34:46;;;;;;;16.50;6.35;;;;;;;;;;5021680;28;25105;-61
2023/06/28 07:37:12;;;;;;;14.20;6.25;;;;;;;;;;5017876;28;25083;-62
2023/06/28 07:39:38;;;;;;;8.40;5.18;;;;;;;;;;5016772;28;25105;-61
2023/06/28 07:42:04;;;;;;;10.02;6.07;;;;;;;;;;5013689;28;25083;-63
2023/06/28 07:44:30;;;;;;;11.80;5.32;;;;;;;;;;5013082;28;25069;-63
2023/06/28 07:46:56;;;;;;;20.00;6.45;;;;;;;;;;5027889;28;25080;-62
2023/06/28 07:49:22;;;;;;;17.45;6.60;;;;;;;;;;5021982;28;25083;-62
2023/06/28 07:51:48;;;;;;;15.13;5.78;;;;;;;;;;5024674;28;25066;-61
2023/06/28 07:54:14;;;;;;;16.13;6.43;;;;;;;;;;5021488;28;25080;-62
2023/06/28 07:56:40;;;;;;;15.05;7.00;;;;;;;;;;5017915;28;25061;-63
2023/06/28 07:59:06;;;;;;;13.70;6.60;;;;;;;;;;5016341;28;25109;-62
2023/06/28 08:01:33;;;;;;;10.65;6.40;;;;;;;;;;5020458;28;25101;-62
2023/06/28 08:03:59;;;;;;;15.32;6.25;;;;;;;;;;5016722;28;25054;-62
2023/06/28 08:06:25;;;;;;;12.02;5.80;;;;;;;;;;5012946;28;25052;-61
2023/06/28 08:08:51;;;;;;;13.70;6.18;;;;;;;;;;5014849;28;25111;-61
2023/06/28 08:11:17;;;;;;;12.50;6.22;;;;;;;;;;5014180;28;25081;-61
2023/06/28 08:13:43;;;;;;;15.20;7.95;;;;;;;;;;5020225;28;25095;-63
2023/06/28 08:16:11;;;;;;;15.77;7.28;;;;;;;;;;5013662;28;25153;-62
2023/06/28 08:18:37;;;;;;;14.73;7.82;;;;;;;;;;5018202;28;25093;-63
2023/06/28 08:21:03;;;;;;;16.55;7.78;;;;;;;;;;5017960;28;25054;-64
2023/06/28 08:23:29;;;;;;;17.58;7.72;;;;;;;;;;5015192;28;25070;-60
2023/06/28 08:25:55;;;;;;;16.25;8.57;;;;;;;;;;5023570;28;25063;-62
2023/06/28 08:28:22;;;;;;;16.40;7.60;;;;;;;;;;5019457;28;25075;-62
2023/06/28 08:30:48;;;;;;;25.38;9.05;;;;;;;;;;5016410;28;25056;-61
2023/06/28 08:33:14;;;;;;;18.23;8.18;;;;;;;;;;5020228;28;25152;-61
2023/06/28 08:35:39;;;;;;;16.08;8.73;;;;;;;;;;5023317;28;25129;-61
2023/06/28 08:38:05;;;;;;;23.30;8.32;;;;;;;;;;5017467;28;25077;-61
2023/06/28 08:40:31;;;;;;;18.77;7.68;;;;;;;;;;5019407;28;25055;-61
2023/06/28 08:43:01;;;;;;;14.63;7.65;;;;;;;;;;5018776;28;25040;-61
2023/06/28 08:45:29;;;;;;;19.17;8.50;;;;;;;;;;5017100;28;25075;-62
2023/06/28 08:47:55;;;;;;;17.30;7.72;;;;;;;;;;5015022;28;25109;-62
2023/06/28 08:50:21;;;;;;;18.55;7.90;;;;;;;;;;5020559;28;25048;-60
2023/06/28 08:52:48;;;;;;;16.35;9.23;;;;;;;;;;5012842;28;25049;-62
2023/06/28 08:55:14;;;;;;;19.33;9.27;;;;;;;;;;5016272;28;25092;-60
2023/06/28 08:57:41;;;;;;;19.98;9.40;;;;;;;;;;5020942;28;25139;-61
2023/06/28 09:00:10;;;;;;;16.75;9.13;;;;;;;;;;5017420;28;25073;-61
2023/06/28 09:02:37;;;;;;;18.40;8.70;;;;;;;;;;5019449;28;25134;-62
2023/06/28 09:05:03;;;;;;;18.80;8.55;;;;;;;;;;5009976;28;25123;-62
2023/06/28 09:07:31;;;;;;;22.77;9.60;;;;;;;;;;5014148;28;25152;-64
2023/06/28 09:09:57;;;;;;;18.67;9.07;;;;;;;;;;5012831;28;25070;-62
2023/06/28 09:12:23;;;;;;;10.13;7.30;;;;;;;;;;5015940;28;25165;-62
2023/06/28 09:14:50;;;;;;;19.60;9.02;;;;;;;;;;5014165;28;25083;-60
2023/06/28 09:17:16;;;;;;;19.65;9.77;;;;;;;;;;5019352;28;25074;-61
2023/06/28 09:19:42;;;;;;;17.48;8.90;;;;;;;;;;5010152;28;25089;-63
2023/06/28 09:22:08;;;;;;;15.90;8.43;;;;;;;;;;5010055;28;25062;-62
2023/06/28 09:24:35;;;;;;;22.38;8.60;;;;;;;;;;5016268;28;25096;-62
2023/06/28 09:27:05;;;;;;;14.77;8.85;;;;;;;;;;5013451;28;25135;-63
2023/06/28 09:29:31;;;;;;;19.83;9.48;;;;;;;;;;5014181;28;25042;-62
2023/06/28 09:31:57;;;;;;;23.48;9.00;;;;;;;;;;5013454;28;25070;-63
2023/06/28 09:34:23;;;;;;;20.08;8.93;;;;;;;;;;5017871;28;25063;-62
2023/06/28 09:36:56;;;;;;;21.05;9.52;;;;;;;;;;5016455;28;25100;-61
2023/06/28 09:39:25;;;;;;;22.15;9.38;;;;;;;;;;5010392;28;25177;-62
2023/06/28 09:41:51;;;;;;;20.35;9.02;;;;;;;;;;5013632;28;25100;-61
2023/06/28 09:44:27;;;;;;;20.98;10.07;;;;;;;;;;5013276;28;25165;-61
2023/06/28 09:46:59;;;;;;;16.65;7.30;;;;;;;;;;5020430;28;25052;-62
2023/06/28 09:49:25;;;;;;;;;;;;;;;;;;5016445;28;25059;-63
2023/06/28 09:52:02;;;;;;;19.75;9.10;;;;;;;;;;5017530;28;25131;-61
2023/06/28 09:54:36;;;;;;;14.77;8.05;;;;;;;;;;5017418;28;25088;-62
2023/06/28 09:57:02;;;;;;;18.55;8.95;;;;;;;;;;5018781;28;25075;-65
2023/06/28 09:59:31;;;;;;;19.50;8.48;;;;;;;;;;5017035;28;25079;-61
2023/06/28 10:01:58;;;;;;;16.63;8.75;;;;;;;;;;5009873;28;25072;-61
2023/06/28 10:04:26;;;;;;;13.50;8.10;;;;;;;;;;5013517;28;25062;-63
2023/06/28 10:06:52;;;;;;;13.65;7.85;;;;;;;;;;5018475;28;25052;-62
2023/06/28 10:09:22;;;;;;;18.50;8.73;;;;;;;;;;5013280;28;25146;-62
2023/06/28 10:11:48;;;;;;;19.83;9.02;;;;;;;;;;5021473;28;25093;-63
2023/06/28 10:14:16;;;;;;;21.70;9.43;;;;;;;;;;5018481;28;25076;-64
2023/06/28 10:16:42;;;;;;;20.38;9.00;;;;;;;;;;5019320;28;25068;-62
2023/06/28 10:19:10;;;;;;;21.13;9.68;;;;;;;;;;5009450;28;25159;-62
2023/06/28 10:21:36;;;;;;;18.20;8.30;;;;;;;;;;5016173;28;25067;-63
2023/06/28 10:24:03;;;;;;;16.25;8.55;;;;;;;;;;5018112;28;25076;-62
2023/06/28 10:26:29;;;;;;;16.83;8.13;;;;;;;;;;5020904;28;25157;-61
2023/06/28 10:28:55;;;;;;;15.32;8.27;;;;;;;;;;5020315;28;25096;-62
2023/06/28 10:31:22;;;;;;;22.08;8.05;;;;;;;;;;5013782;28;25159;-62
2023/06/28 10:33:48;;;;;;;13.90;7.82;;;;;;;;;;5019583;28;25064;-60
2023/06/28 10:36:14;;;;;;;17.90;8.57;;;;;;;;;;5011201;28;25077;-61
2023/06/28 10:38:44;;;;;;;17.95;9.75;;;;;;;;;;5017824;28;25067;-62
2023/06/28 10:41:17;;;;;;;23.60;9.82;;;;;;;;;;5013154;28;25153;-63
2023/06/28 10:43:43;;;;;;;20.05;9.00;;;;;;;;;;5005057;28;25072;-63
2023/06/28 10:46:22;;;;;;;20.60;10.38;;;;;;;;;;5014084;28;25108;-63
2023/06/28 10:48:48;;;;;;;17.63;9.70;;;;;;;;;;5012947;28;25144;-62
2023/06/28 10:51:14;;;;;;;17.85;9.38;;;;;;;;;;5013791;28;25048;-61
2023/06/28 10:53:51;;;;;;;18.67;10.10;;;;;;;;;;5014090;28;25063;-61
2023/06/28 10:56:18;;;;;;;15.82;9.15;;;;;;;;;;5016330;28;25046;-62
2023/06/28 10:58:47;;;;;;;19.67;9.88;;;;;;;;;;5020762;28;25049;-62
2023/06/28 11:01:31;;;;;;;20.90;10.57;;;;;;;;;;5016145;28;25106;-62
2023/06/28 11:04:10;;;;;;;22.08;12.68;;;;;;;;;;5017988;28;25099;-61
2023/06/28 11:06:38;;;;;;;19.70;10.85;;;;;;;;;;5019086;28;25080;-62
2023/06/28 11:09:13;;;;;;;19.05;11.60;;;;;;;;;;5012031;28;25142;-64
2023/06/28 11:11:41;;;;;;;17.15;11.40;;;;;;;;;;5028321;28;25159;-63
2023/06/28 11:14:25;;;;;;;23.63;13.57;;;;;;;;;;5022345;28;25144;-61
2023/06/28 11:16:51;;;;;;;19.42;12.48;;;;;;;;;;5016104;28;25074;-63
2023/06/28 11:19:19;;;;;;;22.40;12.90;;;;;;;;;;5018220;28;25148;-62
2023/06/28 11:21:57;;;;;;;25.65;14.93;;;;;;;;;;5022369;28;25060;-62
2023/06/28 11:24:29;;;;;;;25.45;14.90;;;;;;;;;;5018080;28;25118;-62
2023/06/28 11:26:56;;;;;;;36.55;15.98;;;;;;;;;;5022891;28;25083;-66
2023/06/28 11:29:22;;;;;;;23.88;13.75;;;;;;;;;;5021497;28;25104;-62
2023/06/28 11:31:49;;;;;;;26.40;14.70;;;;;;;;;;5022747;28;25131;-62
2023/06/28 11:34:15;;;;;;;26.08;14.75;;;;;;;;;;5013166;28;25090;-63
2023/06/28 11:36:43;;;;;;;28.52;16.50;;;;;;;;;;5019906;28;25073;-63
2023/06/28 11:39:09;;;;;;;26.50;15.68;;;;;;;;;;5019225;28;25138;-62
2023/06/28 11:41:35;;;;;;;26.80;16.35;;;;;;;;;;5011881;28;25070;-62
2023/06/28 11:44:06;;;;;;;29.83;17.02;;;;;;;;;;5016298;28;25053;-62
2023/06/28 11:46:33;;;;;;;27.25;17.48;;;;;;;;;;5007848;28;25085;-63
2023/06/28 11:49:02;;;;;;;29.20;16.63;;;;;;;;;;5019933;28;25155;-64
2023/06/28 11:51:28;;;;;;;26.40;17.10;;;;;;;;;;5016969;28;25053;-63
2023/06/28 11:53:57;;;;;;;32.42;19.55;;;;;;;;;;5009207;28;25067;-61
2023/06/28 11:56:42;;;;;;;30.55;21.30;;;;;;;;;;5014060;28;25053;-63
2023/06/28 11:59:21;;;;;;;34.40;21.75;;;;;;;;;;5012072;28;25055;-62
2023/06/28 12:01:47;;;;;;;31.45;21.67;;;;;;;;;;5021383;28;25104;-63
2023/06/28 12:04:14;;;;;;;40.00;21.65;;;;;;;;;;5021680;28;25116;-62
2023/06/28 12:06:41;;;;;;;32.00;20.45;;;;;;;;;;5023654;28;25057;-66
2023/06/28 12:09:29;;;;;;;30.58;20.17;;;;;;;;;;5016385;28;25081;-62
2023/06/28 12:11:59;;;;;;;29.67;18.38;;;;;;;;;;5018573;28;25133;-64
2023/06/28 12:14:28;;;;;;;26.90;17.63;;;;;;;;;;5017806;28;25120;-61
2023/06/28 12:16:55;;;;;;;24.67;18.05;;;;;;;;;;5016974;28;25133;-63
2023/06/28 12:19:25;;;;;;;28.50;18.40;;;;;;;;;;5023833;28;25150;-62
2023/06/28 12:21:52;;;;;;;33.38;21.40;;;;;;;;;;5024144;28;25048;-62
2023/06/28 12:24:21;;;;;;;33.30;19.52;;;;;;;;;;5024237;28;25105;-62
2023/06/28 12:26:54;;;;;;;33.40;20.13;;;;;;;;;;5028014;28;25078;-64
2023/06/28 12:29:21;;;;;;;31.95;19.15;;;;;;;;;;5025158;28;25132;-62
2023/06/28 12:31:51;;;;;;;28.02;17.88;;;;;;;;;;5023772;28;25055;-61
2023/06/28 12:34:24;;;;;;;27.55;16.35;;;;;;;;;;5018591;28;25053;-63
2023/06/28 12:37:01;;;;;;;31.20;15.75;;;;;;;;;;5018407;28;25155;-62
2023/06/28 12:39:28;;;;;;;30.27;15.52;;;;;;;;;;5007699;28;25059;-61
2023/06/28 12:42:01;;;;;;;24.42;14.18;;;;;;;;;;5015128;28;25144;-63
2023/06/28 12:44:27;;;;;;;28.98;15.43;;;;;;;;;;5017045;28;25135;-62
2023/06/28 12:46:53;;;;;;;24.60;15.20;;;;;;;;;;5022922;28;25065;-63
2023/06/28 12:49:19;;;;;;;29.33;16.23;;;;;;;;;;5017680;28;25117;-62
2023/06/28 12:51:45;;;;;;;30.08;16.20;;;;;;;;;;5030020;28;25084;-63
2023/06/28 12:54:13;;;;;;;27.52;14.52;;;;;;;;;;5008231;28;25162;-63
2023/06/28 12:56:39;;;;;;;34.70;15.55;;;;;;;;;;5011618;28;25100;-62
2023/06/28 12:59:05;;;;;;;25.00;14.82;;;;;;;;;;5017448;28;25104;-62
2023/06/28 13:01:33;;;;;;;26.85;14.85;;;;;;;;;;5012610;28;25174;-65
2023/06/28 13:03:59;;;;;;;30.67;16.55;;;;;;;;;;5014154;28;25082;-62
2023/06/28 13:06:25;;;;;;;23.35;14.55;;;;;;;;;;5009651;28;25153;-63
2023/06/28 13:08:52;;;;;;;28.98;15.25;;;;;;;;;;5015926;28;25065;-63
2023/06/28 13:11:18;;;;;;;24.25;14.63;;;;;;;;;;5017836;28;25135;-63
2023/06/28 13:13:44;;;;;;;30.02;17.90;;;;;;;;;;5014388;28;25532;-62
2023/06/28 13:16:10;;;;;;;25.48;15.93;;;;;;;;;;5010006;28;25069;-61
2023/06/28 13:18:36;;;;;;;29.08;17.17;;;;;;;;;;5017107;28;25143;-61
2023/06/28 13:21:02;;;;;;;32.05;19.23;;;;;;;;;;5015440;28;25088;-63
2023/06/28 13:23:28;;;;;;;29.67;18.55;;;;;;;;;;5005954;28;25088;-63
2023/06/28 13:25:54;;;;;;;26.52;17.90;;;;;;;;;;5011895;28;25095;-62
2023/06/28 13:28:20;;;;;;;29.35;19.52;;;;;;;;;;5012373;28;25048;-62
2023/06/28 13:30:46;;;;;;;34.35;20.70;;;;;;;;;;5015097;28;25107;-62
2023/06/28 13:33:12;;;;;;;32.33;19.98;;;;;;;;;;5015076;28;25094;-62
2023/06/28 13:35:38;;;;;;;25.92;19.02;;;;;;;;;;5019508;28;25094;-64
2023/06/28 13:38:04;;;;;;;27.98;18.15;;;;;;;;;;5020644;28;25062;-62
2023/06/28 13:40:30;;;;;;;31.65;17.95;;;;;;;;;;5017031;28;25067;-63
2023/06/28 13:42:56;;;;;;;28.73;17.20;;;;;;;;;;5013904;28;25062;-62
2023/06/28 13:45:22;;;;;;;31.27;16.27;;;;;;;;;;5014422;28;25589;-63
2023/06/28 13:47:48;;;;;;;26.20;16.65;;;;;;;;;;5011862;28;25061;-62
2023/06/28 13:50:14;;;;;;;27.25;16.33;;;;;;;;;;5010505;28;25077;-63
2023/06/28 13:52:40;;;;;;;29.08;17.23;;;;;;;;;;5016238;28;25084;-63
2023/06/28 13:55:06;;;;;;;28.38;16.90;;;;;;;;;;5013988;28;25066;-62
2023/06/28 13:57:32;;;;;;;26.17;17.20;;;;;;;;;;5011531;28;25054;-64
2023/06/28 13:59:58;;;;;;;25.30;16.08;;;;;;;;;;5016777;28;25058;-64
2023/06/28 14:02:26;;;;;;;26.00;16.85;;;;;;;;;;5013399;28;25052;-63
2023/06/28 14:04:52;;;;;;;28.17;17.02;;;;;;;;;;5012641;28;25067;-62
2023/06/28 14:07:18;;;;;;;24.55;16.02;;;;;;;;;;5012881;28;25052;-64
2023/06/28 14:09:44;;;;;;;28.77;16.35;;;;;;;;;;5019777;28;25116;-63
2023/06/28 14:12:10;;;;;;;26.80;14.38;;;;;;;;;;5016029;28;25084;-63
2023/06/28 14:14:36;;;;;;;23.67;12.68;;;;;;;;;;5012133;28;25063;-63
2023/06/28 14:17:02;;;;;;;20.42;12.15;;;;;;;;;;5008979;28;25046;-62
2023/06/28 14:19:27;;;;;;;24.33;12.85;;;;;;;;;;5016218;28;25056;-63
2023/06/28 14:21:54;;;;;;;21.00;11.63;;;;;;;;;;5005728;28;25073;-63
2023/06/28 14:24:19;;;;;;;26.67;13.02;;;;;;;;;;5014290;28;25076;-64
2023/06/28 14:26:45;;;;;;;27.98;12.30;;;;;;;;;;5011155;28;25059;-63